sensor_id;sensor_type;location;lat;lon;timestamp;P1;durP1;ratioP1;P2;durP2;ratioP2
47778;SDS011;33538;48.432;11.350;2022-09-09T00:01:45;1.33;;;0.85;;
47778;SDS011;33538;48.432;11.350;2022-09-09T00:04:20;2.92;;;1.08;;
47778;SDS011;33538;48.432;11.350;2022-09-09T00:06:55;1.42;;;1.08;;
47778;SDS011;33538;48.432;11.350;2022-09-09T00:09:27;1.00;;;0.77;;
47778;SDS011;33538;48.432;11.350;2022-09-09T00:11:58;1.38;;;0.93;;
47778;SDS011;33538;48.432;11.350;2022-09-09T00:14:32;2.30;;;0.75;;
47778;SDS011;33538;48.432;11.350;2022-09-09T00:17:06;2.97;;;1.17;;
47778;SDS011;33538;48.432;11.350;2022-09-09T00:19:39;0.82;;;0.82;;
47778;SDS011;33538;48.432;11.350;2022-09-09T00:22:15;1.95;;;1.15;;
47778;SDS011;33538;48.432;11.350;2022-09-09T00:24:44;0.70;;;0.70;;
47778;SDS011;33538;48.432;11.350;2022-09-09T00:27:16;0.80;;;0.80;;
47778;SDS011;33538;48.432;11.350;2022-09-09T00:29:51;5.50;;;1.10;;
47778;SDS011;33538;48.432;11.350;2022-09-09T00:32:22;2.00;;;0.80;;
47778;SDS011;33538;48.432;11.350;2022-09-09T00:34:54;1.63;;;1.00;;
47778;SDS011;33538;48.432;11.350;2022-09-09T00:37:24;4.13;;;1.00;;
47778;SDS011;33538;48.432;11.350;2022-09-09T00:39:53;1.10;;;0.90;;
47778;SDS011;33538;48.432;11.350;2022-09-09T00:42:24;1.45;;;1.00;;
47778;SDS011;33538;48.432;11.350;2022-09-09T00:44:55;1.67;;;0.80;;
47778;SDS011;33538;48.432;11.350;2022-09-09T00:47:37;1.75;;;1.10;;
47778;SDS011;33538;48.432;11.350;2022-09-09T00:50:09;1.90;;;1.13;;
47778;SDS011;33538;48.432;11.350;2022-09-09T00:52:56;0.80;;;0.80;;
47778;SDS011;33538;48.432;11.350;2022-09-09T00:55:33;1.15;;;0.98;;
47778;SDS011;33538;48.432;11.350;2022-09-09T00:58:08;1.15;;;1.02;;
47778;SDS011;33538;48.432;11.350;2022-09-09T01:00:36;1.40;;;1.00;;
47778;SDS011;33538;48.432;11.350;2022-09-09T01:03:21;1.30;;;1.10;;
47778;SDS011;33538;48.432;11.350;2022-09-09T01:05:57;1.15;;;1.02;;
47778;SDS011;33538;48.432;11.350;2022-09-09T01:08:38;2.50;;;0.90;;
47778;SDS011;33538;48.432;11.350;2022-09-09T01:11:12;6.45;;;2.15;;
47778;SDS011;33538;48.432;11.350;2022-09-09T01:13:45;1.35;;;1.13;;
47778;SDS011;33538;48.432;11.350;2022-09-09T01:16:15;0.88;;;0.85;;
47778;SDS011;33538;48.432;11.350;2022-09-09T01:18:45;1.17;;;0.82;;
47778;SDS011;33538;48.432;11.350;2022-09-09T01:21:16;3.40;;;0.80;;
47778;SDS011;33538;48.432;11.350;2022-09-09T01:23:53;1.45;;;1.15;;
47778;SDS011;33538;48.432;11.350;2022-09-09T01:26:36;1.33;;;1.05;;
47778;SDS011;33538;48.432;11.350;2022-09-09T01:29:07;1.10;;;1.00;;
47778;SDS011;33538;48.432;11.350;2022-09-09T01:31:36;2.03;;;1.02;;
47778;SDS011;33538;48.432;11.350;2022-09-09T01:34:07;1.00;;;0.90;;
47778;SDS011;33538;48.432;11.350;2022-09-09T01:36:38;0.85;;;0.85;;
47778;SDS011;33538;48.432;11.350;2022-09-09T01:39:07;1.67;;;1.00;;
47778;SDS011;33538;48.432;11.350;2022-09-09T01:41:35;3.17;;;1.10;;
47778;SDS011;33538;48.432;11.350;2022-09-09T01:44:02;2.10;;;1.17;;
47778;SDS011;33538;48.432;11.350;2022-09-09T01:46:29;0.82;;;0.80;;
47778;SDS011;33538;48.432;11.350;2022-09-09T01:48:56;0.85;;;0.70;;
47778;SDS011;33538;48.432;11.350;2022-09-09T01:51:25;1.02;;;0.90;;
47778;SDS011;33538;48.432;11.350;2022-09-09T01:53:51;0.75;;;0.75;;
47778;SDS011;33538;48.432;11.350;2022-09-09T01:56:21;2.58;;;1.00;;
47778;SDS011;33538;48.432;11.350;2022-09-09T01:59:03;3.97;;;0.80;;
47778;SDS011;33538;48.432;11.350;2022-09-09T02:01:43;0.88;;;0.80;;
47778;SDS011;33538;48.432;11.350;2022-09-09T02:04:18;1.30;;;1.00;;
47778;SDS011;33538;48.432;11.350;2022-09-09T02:06:55;1.10;;;1.00;;
47778;SDS011;33538;48.432;11.350;2022-09-09T02:09:23;1.50;;;0.73;;
47778;SDS011;33538;48.432;11.350;2022-09-09T02:11:54;0.80;;;0.80;;
47778;SDS011;33538;48.432;11.350;2022-09-09T02:16:56;1.90;;;1.00;;
47778;SDS011;33538;48.432;11.350;2022-09-09T02:19:28;0.90;;;0.82;;
47778;SDS011;33538;48.432;11.350;2022-09-09T02:21:59;2.45;;;0.95;;
47778;SDS011;33538;48.432;11.350;2022-09-09T02:24:27;1.38;;;0.98;;
47778;SDS011;33538;48.432;11.350;2022-09-09T02:26:57;1.38;;;1.08;;
47778;SDS011;33538;48.432;11.350;2022-09-09T02:29:28;1.95;;;0.80;;
47778;SDS011;33538;48.432;11.350;2022-09-09T02:32:00;0.73;;;0.73;;
47778;SDS011;33538;48.432;11.350;2022-09-09T02:34:31;1.35;;;0.70;;
47778;SDS011;33538;48.432;11.350;2022-09-09T02:37:01;1.27;;;0.80;;
47778;SDS011;33538;48.432;11.350;2022-09-09T02:39:29;1.13;;;0.80;;
47778;SDS011;33538;48.432;11.350;2022-09-09T02:41:56;1.48;;;1.00;;
47778;SDS011;33538;48.432;11.350;2022-09-09T02:44:23;1.13;;;0.98;;
47778;SDS011;33538;48.432;11.350;2022-09-09T02:46:56;2.20;;;1.15;;
47778;SDS011;33538;48.432;11.350;2022-09-09T02:49:47;1.35;;;0.77;;
47778;SDS011;33538;48.432;11.350;2022-09-09T02:52:27;1.20;;;1.10;;
47778;SDS011;33538;48.432;11.350;2022-09-09T02:54:59;1.27;;;0.88;;
47778;SDS011;33538;48.432;11.350;2022-09-09T02:57:32;5.13;;;0.82;;
47778;SDS011;33538;48.432;11.350;2022-09-09T03:00:00;1.17;;;1.05;;
47778;SDS011;33538;48.432;11.350;2022-09-09T03:02:29;1.52;;;1.33;;
47778;SDS011;33538;48.432;11.350;2022-09-09T03:04:56;1.88;;;1.60;;
47778;SDS011;33538;48.432;11.350;2022-09-09T03:07:22;1.08;;;0.98;;
47778;SDS011;33538;48.432;11.350;2022-09-09T03:09:49;1.08;;;0.98;;
47778;SDS011;33538;48.432;11.350;2022-09-09T03:12:16;0.88;;;0.80;;
47778;SDS011;33538;48.432;11.350;2022-09-09T03:14:43;1.90;;;0.90;;
47778;SDS011;33538;48.432;11.350;2022-09-09T03:17:10;1.10;;;0.90;;
47778;SDS011;33538;48.432;11.350;2022-09-09T03:19:38;1.52;;;0.93;;
47778;SDS011;33538;48.432;11.350;2022-09-09T03:22:04;1.65;;;1.20;;
47778;SDS011;33538;48.432;11.350;2022-09-09T03:24:31;1.55;;;0.85;;
47778;SDS011;33538;48.432;11.350;2022-09-09T03:26:58;1.83;;;0.90;;
47778;SDS011;33538;48.432;11.350;2022-09-09T03:29:25;2.50;;;1.13;;
47778;SDS011;33538;48.432;11.350;2022-09-09T03:31:52;0.70;;;0.70;;
47778;SDS011;33538;48.432;11.350;2022-09-09T03:34:19;1.52;;;1.10;;
47778;SDS011;33538;48.432;11.350;2022-09-09T03:36:47;1.20;;;1.10;;
47778;SDS011;33538;48.432;11.350;2022-09-09T03:39:14;1.70;;;1.20;;
47778;SDS011;33538;48.432;11.350;2022-09-09T03:41:40;1.20;;;0.90;;
47778;SDS011;33538;48.432;11.350;2022-09-09T03:44:07;1.45;;;0.80;;
47778;SDS011;33538;48.432;11.350;2022-09-09T03:46:34;1.10;;;0.85;;
47778;SDS011;33538;48.432;11.350;2022-09-09T03:49:01;1.23;;;1.05;;
47778;SDS011;33538;48.432;11.350;2022-09-09T03:51:27;2.08;;;1.00;;
47778;SDS011;33538;48.432;11.350;2022-09-09T03:53:55;2.03;;;0.80;;
47778;SDS011;33538;48.432;11.350;2022-09-09T03:56:22;2.17;;;0.93;;
47778;SDS011;33538;48.432;11.350;2022-09-09T03:58:49;1.00;;;0.90;;
47778;SDS011;33538;48.432;11.350;2022-09-09T04:01:16;1.63;;;1.13;;
47778;SDS011;33538;48.432;11.350;2022-09-09T04:03:43;1.83;;;1.10;;
47778;SDS011;33538;48.432;11.350;2022-09-09T04:06:10;3.92;;;1.00;;
47778;SDS011;33538;48.432;11.350;2022-09-09T04:08:38;0.80;;;0.80;;
47778;SDS011;33538;48.432;11.350;2022-09-09T04:11:06;2.15;;;0.93;;
47778;SDS011;33538;48.432;11.350;2022-09-09T04:13:33;0.90;;;0.90;;
47778;SDS011;33538;48.432;11.350;2022-09-09T04:16:02;4.38;;;0.90;;
47778;SDS011;33538;48.432;11.350;2022-09-09T04:18:29;1.60;;;0.90;;
47778;SDS011;33538;48.432;11.350;2022-09-09T04:20:56;1.67;;;1.20;;
47778;SDS011;33538;48.432;11.350;2022-09-09T04:23:24;1.77;;;0.90;;
47778;SDS011;33538;48.432;11.350;2022-09-09T04:25:52;1.35;;;1.00;;
47778;SDS011;33538;48.432;11.350;2022-09-09T04:28:22;3.22;;;1.23;;
47778;SDS011;33538;48.432;11.350;2022-09-09T04:30:50;1.15;;;1.05;;
47778;SDS011;33538;48.432;11.350;2022-09-09T04:33:17;1.27;;;0.90;;
47778;SDS011;33538;48.432;11.350;2022-09-09T04:35:45;1.40;;;1.08;;
47778;SDS011;33538;48.432;11.350;2022-09-09T04:38:13;1.33;;;1.10;;
47778;SDS011;33538;48.432;11.350;2022-09-09T04:40:41;1.65;;;1.10;;
47778;SDS011;33538;48.432;11.350;2022-09-09T04:43:09;0.80;;;0.80;;
47778;SDS011;33538;48.432;11.350;2022-09-09T04:45:41;1.25;;;0.90;;
47778;SDS011;33538;48.432;11.350;2022-09-09T04:48:08;2.55;;;1.17;;
47778;SDS011;33538;48.432;11.350;2022-09-09T04:50:35;1.73;;;1.15;;
47778;SDS011;33538;48.432;11.350;2022-09-09T04:53:02;1.50;;;1.10;;
47778;SDS011;33538;48.432;11.350;2022-09-09T04:55:29;2.70;;;1.25;;
47778;SDS011;33538;48.432;11.350;2022-09-09T04:57:56;1.48;;;1.20;;
47778;SDS011;33538;48.432;11.350;2022-09-09T05:00:23;1.10;;;1.00;;
47778;SDS011;33538;48.432;11.350;2022-09-09T05:02:51;2.38;;;1.33;;
47778;SDS011;33538;48.432;11.350;2022-09-09T05:05:18;0.70;;;0.60;;
47778;SDS011;33538;48.432;11.350;2022-09-09T05:07:44;1.35;;;0.98;;
47778;SDS011;33538;48.432;11.350;2022-09-09T05:10:11;1.00;;;0.90;;
47778;SDS011;33538;48.432;11.350;2022-09-09T05:12:38;2.90;;;0.90;;
47778;SDS011;33538;48.432;11.350;2022-09-09T05:15:05;0.95;;;0.52;;
47778;SDS011;33538;48.432;11.350;2022-09-09T05:17:32;0.88;;;0.75;;
47778;SDS011;33538;48.432;11.350;2022-09-09T05:20:01;1.40;;;0.88;;
47778;SDS011;33538;48.432;11.350;2022-09-09T05:22:32;1.07;;;0.80;;
47778;SDS011;33538;48.432;11.350;2022-09-09T05:24:59;1.20;;;0.95;;
47778;SDS011;33538;48.432;11.350;2022-09-09T05:27:26;1.80;;;1.10;;
47778;SDS011;33538;48.432;11.350;2022-09-09T05:29:53;7.10;;;1.17;;
47778;SDS011;33538;48.432;11.350;2022-09-09T05:32:20;1.02;;;0.93;;
47778;SDS011;33538;48.432;11.350;2022-09-09T05:34:46;1.48;;;0.95;;
47778;SDS011;33538;48.432;11.350;2022-09-09T05:37:15;1.23;;;1.05;;
47778;SDS011;33538;48.432;11.350;2022-09-09T05:39:42;0.80;;;0.75;;
47778;SDS011;33538;48.432;11.350;2022-09-09T05:42:09;2.08;;;0.90;;
47778;SDS011;33538;48.432;11.350;2022-09-09T05:44:35;2.05;;;1.17;;
47778;SDS011;33538;48.432;11.350;2022-09-09T05:47:02;4.03;;;1.20;;
47778;SDS011;33538;48.432;11.350;2022-09-09T05:49:29;3.53;;;0.90;;
47778;SDS011;33538;48.432;11.350;2022-09-09T05:51:56;7.55;;;1.13;;
47778;SDS011;33538;48.432;11.350;2022-09-09T05:54:42;5.30;;;1.00;;
47778;SDS011;33538;48.432;11.350;2022-09-09T05:57:09;0.93;;;0.93;;
47778;SDS011;33538;48.432;11.350;2022-09-09T05:59:36;1.20;;;1.10;;
47778;SDS011;33538;48.432;11.350;2022-09-09T06:02:02;1.73;;;1.13;;
47778;SDS011;33538;48.432;11.350;2022-09-09T06:04:29;2.72;;;1.60;;
47778;SDS011;33538;48.432;11.350;2022-09-09T06:06:56;1.65;;;1.17;;
47778;SDS011;33538;48.432;11.350;2022-09-09T06:09:23;2.65;;;1.33;;
47778;SDS011;33538;48.432;11.350;2022-09-09T06:11:51;3.10;;;1.60;;
47778;SDS011;33538;48.432;11.350;2022-09-09T06:14:17;2.00;;;1.30;;
47778;SDS011;33538;48.432;11.350;2022-09-09T06:16:44;1.90;;;1.35;;
47778;SDS011;33538;48.432;11.350;2022-09-09T06:19:11;4.93;;;1.27;;
47778;SDS011;33538;48.432;11.350;2022-09-09T06:21:37;2.40;;;1.05;;
47778;SDS011;33538;48.432;11.350;2022-09-09T06:24:04;2.22;;;1.25;;
47778;SDS011;33538;48.432;11.350;2022-09-09T06:26:32;1.30;;;1.20;;
47778;SDS011;33538;48.432;11.350;2022-09-09T06:29:02;1.48;;;1.13;;
47778;SDS011;33538;48.432;11.350;2022-09-09T06:31:30;1.50;;;1.33;;
47778;SDS011;33538;48.432;11.350;2022-09-09T06:33:58;1.02;;;0.90;;
47778;SDS011;33538;48.432;11.350;2022-09-09T06:36:26;2.65;;;0.95;;
47778;SDS011;33538;48.432;11.350;2022-09-09T06:38:54;1.48;;;1.10;;
47778;SDS011;33538;48.432;11.350;2022-09-09T06:41:22;1.63;;;1.00;;
47778;SDS011;33538;48.432;11.350;2022-09-09T06:43:49;2.30;;;1.17;;
47778;SDS011;33538;48.432;11.350;2022-09-09T06:46:18;1.15;;;0.90;;
47778;SDS011;33538;48.432;11.350;2022-09-09T06:48:46;2.60;;;1.45;;
47778;SDS011;33538;48.432;11.350;2022-09-09T06:51:13;1.45;;;1.13;;
47778;SDS011;33538;48.432;11.350;2022-09-09T06:53:42;2.08;;;1.35;;
47778;SDS011;33538;48.432;11.350;2022-09-09T06:56:17;4.45;;;1.20;;
47778;SDS011;33538;48.432;11.350;2022-09-09T06:58:46;0.98;;;0.93;;
47778;SDS011;33538;48.432;11.350;2022-09-09T07:01:14;3.60;;;1.30;;
47778;SDS011;33538;48.432;11.350;2022-09-09T07:03:44;2.03;;;1.05;;
47778;SDS011;33538;48.432;11.350;2022-09-09T07:06:13;1.83;;;1.40;;
47778;SDS011;33538;48.432;11.350;2022-09-09T07:08:41;1.67;;;1.17;;
47778;SDS011;33538;48.432;11.350;2022-09-09T07:11:08;2.08;;;1.20;;
47778;SDS011;33538;48.432;11.350;2022-09-09T07:13:37;3.10;;;1.55;;
47778;SDS011;33538;48.432;11.350;2022-09-09T07:16:04;2.35;;;1.48;;
47778;SDS011;33538;48.432;11.350;2022-09-09T07:18:33;3.00;;;1.80;;
47778;SDS011;33538;48.432;11.350;2022-09-09T07:21:02;6.60;;;2.13;;
47778;SDS011;33538;48.432;11.350;2022-09-09T07:23:29;2.53;;;1.50;;
47778;SDS011;33538;48.432;11.350;2022-09-09T07:26:01;2.80;;;1.30;;
47778;SDS011;33538;48.432;11.350;2022-09-09T07:28:28;3.40;;;1.23;;
47778;SDS011;33538;48.432;11.350;2022-09-09T07:30:56;3.78;;;1.48;;
47778;SDS011;33538;48.432;11.350;2022-09-09T07:33:23;2.47;;;1.35;;
47778;SDS011;33538;48.432;11.350;2022-09-09T07:35:50;3.55;;;1.85;;
47778;SDS011;33538;48.432;11.350;2022-09-09T07:38:19;6.45;;;1.70;;
47778;SDS011;33538;48.432;11.350;2022-09-09T07:40:46;2.58;;;1.80;;
47778;SDS011;33538;48.432;11.350;2022-09-09T07:43:13;3.55;;;1.48;;
47778;SDS011;33538;48.432;11.350;2022-09-09T07:45:42;2.47;;;1.35;;
47778;SDS011;33538;48.432;11.350;2022-09-09T07:48:09;2.33;;;1.38;;
47778;SDS011;33538;48.432;11.350;2022-09-09T07:50:37;1.70;;;1.42;;
47778;SDS011;33538;48.432;11.350;2022-09-09T07:53:04;3.15;;;1.40;;
47778;SDS011;33538;48.432;11.350;2022-09-09T07:55:32;3.10;;;1.50;;
47778;SDS011;33538;48.432;11.350;2022-09-09T07:57:58;2.17;;;1.70;;
47778;SDS011;33538;48.432;11.350;2022-09-09T08:00:25;2.22;;;1.38;;
47778;SDS011;33538;48.432;11.350;2022-09-09T08:02:52;2.42;;;1.48;;
47778;SDS011;33538;48.432;11.350;2022-09-09T08:05:19;2.92;;;1.60;;
47778;SDS011;33538;48.432;11.350;2022-09-09T08:07:46;1.52;;;1.40;;
47778;SDS011;33538;48.432;11.350;2022-09-09T08:10:12;4.47;;;1.30;;
47778;SDS011;33538;48.432;11.350;2022-09-09T08:12:40;3.67;;;1.30;;
47778;SDS011;33538;48.432;11.350;2022-09-09T08:15:27;2.83;;;1.52;;
47778;SDS011;33538;48.432;11.350;2022-09-09T08:17:55;2.03;;;1.20;;
47778;SDS011;33538;48.432;11.350;2022-09-09T08:20:23;2.55;;;1.50;;
47778;SDS011;33538;48.432;11.350;2022-09-09T08:22:50;1.85;;;1.40;;
47778;SDS011;33538;48.432;11.350;2022-09-09T08:25:17;1.90;;;1.70;;
47778;SDS011;33538;48.432;11.350;2022-09-09T08:27:46;2.10;;;1.45;;
47778;SDS011;33538;48.432;11.350;2022-09-09T08:30:14;2.78;;;1.65;;
47778;SDS011;33538;48.432;11.350;2022-09-09T08:32:42;2.55;;;1.27;;
47778;SDS011;33538;48.432;11.350;2022-09-09T08:35:12;3.22;;;1.50;;
47778;SDS011;33538;48.432;11.350;2022-09-09T08:37:39;4.85;;;1.42;;
47778;SDS011;33538;48.432;11.350;2022-09-09T08:40:07;4.53;;;1.50;;
47778;SDS011;33538;48.432;11.350;2022-09-09T08:42:44;1.77;;;1.20;;
47778;SDS011;33538;48.432;11.350;2022-09-09T08:45:19;6.00;;;1.42;;
47778;SDS011;33538;48.432;11.350;2022-09-09T08:47:56;3.38;;;1.58;;
47778;SDS011;33538;48.432;11.350;2022-09-09T08:50:35;2.35;;;1.38;;
47778;SDS011;33538;48.432;11.350;2022-09-09T08:53:05;2.15;;;1.45;;
47778;SDS011;33538;48.432;11.350;2022-09-09T08:55:40;4.18;;;1.35;;
47778;SDS011;33538;48.432;11.350;2022-09-09T08:58:14;1.67;;;1.38;;
47778;SDS011;33538;48.432;11.350;2022-09-09T09:00:50;2.15;;;1.50;;
47778;SDS011;33538;48.432;11.350;2022-09-09T09:03:28;1.40;;;1.30;;
47778;SDS011;33538;48.432;11.350;2022-09-09T09:06:04;2.67;;;1.00;;
47778;SDS011;33538;48.432;11.350;2022-09-09T09:08:42;1.70;;;1.08;;
47778;SDS011;33538;48.432;11.350;2022-09-09T09:11:13;2.33;;;1.45;;
47778;SDS011;33538;48.432;11.350;2022-09-09T09:13:43;1.80;;;1.42;;
47778;SDS011;33538;48.432;11.350;2022-09-09T09:16:21;2.90;;;1.40;;
47778;SDS011;33538;48.432;11.350;2022-09-09T09:18:53;2.40;;;1.42;;
47778;SDS011;33538;48.432;11.350;2022-09-09T09:21:21;1.80;;;1.40;;
47778;SDS011;33538;48.432;11.350;2022-09-09T09:23:59;4.15;;;1.50;;
47778;SDS011;33538;48.432;11.350;2022-09-09T09:26:29;3.42;;;1.45;;
47778;SDS011;33538;48.432;11.350;2022-09-09T09:29:04;1.83;;;1.20;;
47778;SDS011;33538;48.432;11.350;2022-09-09T09:31:37;1.27;;;1.08;;
47778;SDS011;33538;48.432;11.350;2022-09-09T09:34:05;1.30;;;1.20;;
47778;SDS011;33538;48.432;11.350;2022-09-09T09:36:37;1.88;;;1.20;;
47778;SDS011;33538;48.432;11.350;2022-09-09T09:39:07;4.63;;;1.40;;
47778;SDS011;33538;48.432;11.350;2022-09-09T09:41:57;2.72;;;1.10;;
47778;SDS011;33538;48.432;11.350;2022-09-09T09:44:26;1.88;;;1.42;;
47778;SDS011;33538;48.432;11.350;2022-09-09T09:47:05;1.23;;;1.00;;
47778;SDS011;33538;48.432;11.350;2022-09-09T09:49:33;1.40;;;1.00;;
47778;SDS011;33538;48.432;11.350;2022-09-09T09:52:00;1.40;;;1.08;;
47778;SDS011;33538;48.432;11.350;2022-09-09T09:54:28;3.78;;;1.00;;
47778;SDS011;33538;48.432;11.350;2022-09-09T09:57:07;1.33;;;0.88;;
47778;SDS011;33538;48.432;11.350;2022-09-09T09:59:37;0.90;;;0.90;;
47778;SDS011;33538;48.432;11.350;2022-09-09T10:02:13;1.73;;;1.38;;
47778;SDS011;33538;48.432;11.350;2022-09-09T10:04:45;3.15;;;1.42;;
47778;SDS011;33538;48.432;11.350;2022-09-09T10:07:16;1.65;;;1.20;;
47778;SDS011;33538;48.432;11.350;2022-09-09T10:09:46;2.83;;;1.02;;
47778;SDS011;33538;48.432;11.350;2022-09-09T10:14:55;1.85;;;0.93;;
47778;SDS011;33538;48.432;11.350;2022-09-09T10:17:30;1.00;;;0.77;;
47778;SDS011;33538;48.432;11.350;2022-09-09T10:20:07;2.17;;;0.90;;
47778;SDS011;33538;48.432;11.350;2022-09-09T10:22:44;0.85;;;0.85;;
47778;SDS011;33538;48.432;11.350;2022-09-09T10:25:33;1.15;;;1.02;;
47778;SDS011;33538;48.432;11.350;2022-09-09T10:28:24;1.40;;;0.68;;
47778;SDS011;33538;48.432;11.350;2022-09-09T10:31:04;1.85;;;1.20;;
47778;SDS011;33538;48.432;11.350;2022-09-09T10:33:42;4.82;;;0.88;;
47778;SDS011;33538;48.432;11.350;2022-09-09T10:36:17;1.83;;;0.90;;
47778;SDS011;33538;48.432;11.350;2022-09-09T10:38:47;6.22;;;1.17;;
47778;SDS011;33538;48.432;11.350;2022-09-09T10:41:19;0.85;;;0.75;;
47778;SDS011;33538;48.432;11.350;2022-09-09T10:44:02;3.95;;;1.00;;
47778;SDS011;33538;48.432;11.350;2022-09-09T10:46:51;2.22;;;1.02;;
47778;SDS011;33538;48.432;11.350;2022-09-09T10:49:39;1.50;;;0.80;;
47778;SDS011;33538;48.432;11.350;2022-09-09T10:52:24;3.13;;;0.90;;
47778;SDS011;33538;48.432;11.350;2022-09-09T10:54:59;2.65;;;0.68;;
47778;SDS011;33538;48.432;11.350;2022-09-09T10:57:33;0.65;;;0.60;;
47778;SDS011;33538;48.432;11.350;2022-09-09T11:00:06;1.23;;;0.75;;
47778;SDS011;33538;48.432;11.350;2022-09-09T11:02:42;0.95;;;0.40;;
47778;SDS011;33538;48.432;11.350;2022-09-09T11:05:10;1.08;;;0.80;;
47778;SDS011;33538;48.432;11.350;2022-09-09T11:07:44;0.70;;;0.57;;
47778;SDS011;33538;48.432;11.350;2022-09-09T11:10:17;1.27;;;0.70;;
47778;SDS011;33538;48.432;11.350;2022-09-09T11:12:52;0.95;;;0.70;;
47778;SDS011;33538;48.432;11.350;2022-09-09T11:15:23;2.30;;;0.60;;
47778;SDS011;33538;48.432;11.350;2022-09-09T11:17:57;1.13;;;0.68;;
47778;SDS011;33538;48.432;11.350;2022-09-09T11:20:27;0.60;;;0.55;;
47778;SDS011;33538;48.432;11.350;2022-09-09T11:22:54;1.23;;;0.65;;
47778;SDS011;33538;48.432;11.350;2022-09-09T11:25:27;0.85;;;0.70;;
47778;SDS011;33538;48.432;11.350;2022-09-09T11:28:04;2.97;;;0.82;;
47778;SDS011;33538;48.432;11.350;2022-09-09T11:30:44;3.03;;;1.05;;
47778;SDS011;33538;48.432;11.350;2022-09-09T11:33:40;6.32;;;0.80;;
47778;SDS011;33538;48.432;11.350;2022-09-09T11:38:56;2.33;;;0.70;;
47778;SDS011;33538;48.432;11.350;2022-09-09T11:41:32;0.90;;;0.90;;
47778;SDS011;33538;48.432;11.350;2022-09-09T11:44:08;0.82;;;0.70;;
47778;SDS011;33538;48.432;11.350;2022-09-09T11:46:37;1.95;;;0.70;;
47778;SDS011;33538;48.432;11.350;2022-09-09T11:51:53;2.13;;;0.80;;
47778;SDS011;33538;48.432;11.350;2022-09-09T11:54:26;1.63;;;1.00;;
47778;SDS011;33538;48.432;11.350;2022-09-09T11:56:55;0.82;;;0.70;;
47778;SDS011;33538;48.432;11.350;2022-09-09T11:59:23;3.92;;;0.90;;
47778;SDS011;33538;48.432;11.350;2022-09-09T12:01:54;4.18;;;1.00;;
47778;SDS011;33538;48.432;11.350;2022-09-09T12:04:29;1.48;;;0.70;;
47778;SDS011;33538;48.432;11.350;2022-09-09T12:06:59;2.90;;;0.85;;
47778;SDS011;33538;48.432;11.350;2022-09-09T12:09:44;0.70;;;0.70;;
47778;SDS011;33538;48.432;11.350;2022-09-09T12:12:24;0.70;;;0.60;;
47778;SDS011;33538;48.432;11.350;2022-09-09T12:14:57;6.72;;;1.05;;
47778;SDS011;33538;48.432;11.350;2022-09-09T12:17:44;2.00;;;0.60;;
47778;SDS011;33538;48.432;11.350;2022-09-09T12:20:16;2.88;;;1.13;;
47778;SDS011;33538;48.432;11.350;2022-09-09T12:22:47;1.88;;;0.80;;
47778;SDS011;33538;48.432;11.350;2022-09-09T12:25:26;1.55;;;1.00;;
47778;SDS011;33538;48.432;11.350;2022-09-09T12:28:01;2.33;;;0.75;;
47778;SDS011;33538;48.432;11.350;2022-09-09T12:30:34;1.05;;;0.60;;
47778;SDS011;33538;48.432;11.350;2022-09-09T12:35:37;2.38;;;0.80;;
47778;SDS011;33538;48.432;11.350;2022-09-09T12:38:05;0.82;;;0.60;;
47778;SDS011;33538;48.432;11.350;2022-09-09T12:40:36;0.98;;;0.60;;
47778;SDS011;33538;48.432;11.350;2022-09-09T12:43:14;1.23;;;0.77;;
47778;SDS011;33538;48.432;11.350;2022-09-09T12:45:43;2.33;;;0.77;;
47778;SDS011;33538;48.432;11.350;2022-09-09T12:48:11;1.30;;;0.70;;
47778;SDS011;33538;48.432;11.350;2022-09-09T12:50:43;3.20;;;0.80;;
47778;SDS011;33538;48.432;11.350;2022-09-09T12:53:12;3.10;;;0.77;;
47778;SDS011;33538;48.432;11.350;2022-09-09T12:55:49;1.00;;;0.60;;
47778;SDS011;33538;48.432;11.350;2022-09-09T12:58:18;3.55;;;0.82;;
47778;SDS011;33538;48.432;11.350;2022-09-09T13:00:48;2.05;;;0.60;;
47778;SDS011;33538;48.432;11.350;2022-09-09T13:03:17;1.85;;;0.52;;
47778;SDS011;33538;48.432;11.350;2022-09-09T13:05:48;0.60;;;0.43;;
47778;SDS011;33538;48.432;11.350;2022-09-09T13:08:15;2.17;;;0.55;;
47778;SDS011;33538;48.432;11.350;2022-09-09T13:10:43;1.42;;;0.50;;
47778;SDS011;33538;48.432;11.350;2022-09-09T13:13:20;1.20;;;0.40;;
47778;SDS011;33538;48.432;11.350;2022-09-09T13:15:49;1.00;;;0.40;;
47778;SDS011;33538;48.432;11.350;2022-09-09T13:18:18;1.95;;;0.80;;
47778;SDS011;33538;48.432;11.350;2022-09-09T13:20:50;1.65;;;0.47;;
47778;SDS011;33538;48.432;11.350;2022-09-09T13:23:18;1.15;;;0.60;;
47778;SDS011;33538;48.432;11.350;2022-09-09T13:25:53;0.70;;;0.70;;
47778;SDS011;33538;48.432;11.350;2022-09-09T13:28:21;2.63;;;0.57;;
47778;SDS011;33538;48.432;11.350;2022-09-09T13:30:56;2.30;;;0.82;;
47778;SDS011;33538;48.432;11.350;2022-09-09T13:33:29;0.45;;;0.40;;
47778;SDS011;33538;48.432;11.350;2022-09-09T13:35:59;1.13;;;0.40;;
47778;SDS011;33538;48.432;11.350;2022-09-09T13:38:29;3.28;;;0.60;;
47778;SDS011;33538;48.432;11.350;2022-09-09T13:40:58;0.85;;;0.60;;
47778;SDS011;33538;48.432;11.350;2022-09-09T13:43:26;1.35;;;0.50;;
47778;SDS011;33538;48.432;11.350;2022-09-09T13:45:55;1.95;;;0.60;;
47778;SDS011;33538;48.432;11.350;2022-09-09T13:48:23;4.07;;;0.77;;
47778;SDS011;33538;48.432;11.350;2022-09-09T13:50:57;4.10;;;0.65;;
47778;SDS011;33538;48.432;11.350;2022-09-09T13:53:27;1.23;;;0.65;;
47778;SDS011;33538;48.432;11.350;2022-09-09T13:55:54;1.10;;;0.40;;
47778;SDS011;33538;48.432;11.350;2022-09-09T13:58:21;0.73;;;0.50;;
47778;SDS011;33538;48.432;11.350;2022-09-09T14:00:48;1.42;;;0.35;;
47778;SDS011;33538;48.432;11.350;2022-09-09T14:03:15;1.23;;;0.40;;
47778;SDS011;33538;48.432;11.350;2022-09-09T14:05:42;1.40;;;0.40;;
47778;SDS011;33538;48.432;11.350;2022-09-09T14:08:20;0.68;;;0.40;;
47778;SDS011;33538;48.432;11.350;2022-09-09T14:10:49;2.25;;;0.45;;
47778;SDS011;33538;48.432;11.350;2022-09-09T14:13:17;1.05;;;0.50;;
47778;SDS011;33538;48.432;11.350;2022-09-09T14:15:43;0.75;;;0.52;;
47778;SDS011;33538;48.432;11.350;2022-09-09T14:18:11;0.57;;;0.57;;
47778;SDS011;33538;48.432;11.350;2022-09-09T14:20:38;1.85;;;0.90;;
47778;SDS011;33538;48.432;11.350;2022-09-09T14:23:05;6.35;;;0.75;;
47778;SDS011;33538;48.432;11.350;2022-09-09T14:25:33;0.40;;;0.40;;
47778;SDS011;33538;48.432;11.350;2022-09-09T14:28:00;2.10;;;0.50;;
47778;SDS011;33538;48.432;11.350;2022-09-09T14:30:27;2.95;;;0.60;;
47778;SDS011;33538;48.432;11.350;2022-09-09T14:32:54;3.03;;;0.60;;
47778;SDS011;33538;48.432;11.350;2022-09-09T14:35:21;0.50;;;0.50;;
47778;SDS011;33538;48.432;11.350;2022-09-09T14:37:47;1.52;;;0.77;;
47778;SDS011;33538;48.432;11.350;2022-09-09T14:40:14;2.47;;;0.50;;
47778;SDS011;33538;48.432;11.350;2022-09-09T14:42:42;0.63;;;0.40;;
47778;SDS011;33538;48.432;11.350;2022-09-09T14:45:10;1.17;;;0.60;;
47778;SDS011;33538;48.432;11.350;2022-09-09T14:47:37;0.73;;;0.60;;
47778;SDS011;33538;48.432;11.350;2022-09-09T14:50:04;0.82;;;0.30;;
47778;SDS011;33538;48.432;11.350;2022-09-09T14:52:31;0.77;;;0.77;;
47778;SDS011;33538;48.432;11.350;2022-09-09T14:54:58;1.83;;;0.75;;
47778;SDS011;33538;48.432;11.350;2022-09-09T14:57:25;4.60;;;0.60;;
47778;SDS011;33538;48.432;11.350;2022-09-09T14:59:53;0.93;;;0.60;;
47778;SDS011;33538;48.432;11.350;2022-09-09T15:02:20;2.13;;;0.52;;
47778;SDS011;33538;48.432;11.350;2022-09-09T15:04:52;1.85;;;0.52;;
47778;SDS011;33538;48.432;11.350;2022-09-09T15:07:19;1.00;;;0.35;;